sensor_id;sensor_type;location;lat;lon;timestamp;P1;durP1;ratioP1;P2;durP2;ratioP2
16824;SDS011;8529;48.108;-1.706;2024-01-11T00:00:45;39.20;;;19.37;;
16824;SDS011;8529;48.108;-1.706;2024-01-11T00:03:13;37.00;;;18.07;;
16824;SDS011;8529;48.108;-1.706;2024-01-11T00:05:40;40.77;;;19.23;;
16824;SDS011;8529;48.108;-1.706;2024-01-11T00:08:09;39.47;;;19.10;;
16824;SDS011;8529;48.108;-1.706;2024-01-11T00:10:37;35.97;;;19.40;;
16824;SDS011;8529;48.108;-1.706;2024-01-11T00:13:04;43.20;;;19.70;;
16824;SDS011;8529;48.108;-1.706;2024-01-11T00:15:31;42.60;;;19.57;;
16824;SDS011;8529;48.108;-1.706;2024-01-11T00:17:59;37.13;;;19.17;;
16824;SDS011;8529;48.108;-1.706;2024-01-11T00:20:26;37.87;;;19.00;;
16824;SDS011;8529;48.108;-1.706;2024-01-11T00:22:53;42.20;;;20.80;;
16824;SDS011;8529;48.108;-1.706;2024-01-11T00:25:21;42.27;;;20.90;;
16824;SDS011;8529;48.108;-1.706;2024-01-11T00:27:49;38.17;;;19.60;;
16824;SDS011;8529;48.108;-1.706;2024-01-11T00:30:16;39.73;;;19.83;;
16824;SDS011;8529;48.108;-1.706;2024-01-11T00:32:43;41.90;;;19.37;;
16824;SDS011;8529;48.108;-1.706;2024-01-11T00:35:10;35.33;;;20.23;;
16824;SDS011;8529;48.108;-1.706;2024-01-11T00:37:37;45.63;;;21.57;;
16824;SDS011;8529;48.108;-1.706;2024-01-11T00:40:05;37.57;;;18.50;;
16824;SDS011;8529;48.108;-1.706;2024-01-11T00:42:34;38.77;;;20.37;;
16824;SDS011;8529;48.108;-1.706;2024-01-11T00:45:01;39.53;;;18.43;;
16824;SDS011;8529;48.108;-1.706;2024-01-11T00:47:28;40.13;;;19.80;;
16824;SDS011;8529;48.108;-1.706;2024-01-11T00:49:55;43.20;;;21.00;;
16824;SDS011;8529;48.108;-1.706;2024-01-11T00:52:22;46.40;;;20.83;;
16824;SDS011;8529;48.108;-1.706;2024-01-11T00:54:50;36.33;;;19.73;;
16824;SDS011;8529;48.108;-1.706;2024-01-11T00:57:17;37.07;;;19.87;;
16824;SDS011;8529;48.108;-1.706;2024-01-11T00:59:46;44.30;;;19.83;;
16824;SDS011;8529;48.108;-1.706;2024-01-11T01:02:13;38.43;;;19.23;;
16824;SDS011;8529;48.108;-1.706;2024-01-11T01:04:40;42.77;;;20.43;;
16824;SDS011;8529;48.108;-1.706;2024-01-11T01:07:07;41.53;;;19.03;;
16824;SDS011;8529;48.108;-1.706;2024-01-11T01:09:34;38.23;;;19.67;;
16824;SDS011;8529;48.108;-1.706;2024-01-11T01:12:02;41.60;;;19.17;;
16824;SDS011;8529;48.108;-1.706;2024-01-11T01:14:29;39.97;;;18.77;;
16824;SDS011;8529;48.108;-1.706;2024-01-11T01:16:58;42.23;;;20.13;;
16824;SDS011;8529;48.108;-1.706;2024-01-11T01:19:25;37.23;;;18.37;;
16824;SDS011;8529;48.108;-1.706;2024-01-11T01:21:52;43.50;;;21.07;;
16824;SDS011;8529;48.108;-1.706;2024-01-11T01:24:19;46.20;;;20.33;;
16824;SDS011;8529;48.108;-1.706;2024-01-11T01:26:46;44.00;;;20.37;;
16824;SDS011;8529;48.108;-1.706;2024-01-11T01:29:13;40.53;;;20.63;;
16824;SDS011;8529;48.108;-1.706;2024-01-11T01:31:41;40.50;;;20.07;;
16824;SDS011;8529;48.108;-1.706;2024-01-11T01:34:09;42.37;;;21.03;;
16824;SDS011;8529;48.108;-1.706;2024-01-11T01:36:36;49.23;;;19.50;;
16824;SDS011;8529;48.108;-1.706;2024-01-11T01:39:04;37.20;;;19.73;;
16824;SDS011;8529;48.108;-1.706;2024-01-11T01:41:31;39.03;;;19.27;;
16824;SDS011;8529;48.108;-1.706;2024-01-11T01:43:58;43.80;;;19.93;;
16824;SDS011;8529;48.108;-1.706;2024-01-11T01:46:25;39.90;;;19.03;;
16824;SDS011;8529;48.108;-1.706;2024-01-11T01:48:53;39.67;;;20.27;;
16824;SDS011;8529;48.108;-1.706;2024-01-11T01:51:22;38.23;;;18.83;;
16824;SDS011;8529;48.108;-1.706;2024-01-11T01:53:50;37.60;;;19.70;;
16824;SDS011;8529;48.108;-1.706;2024-01-11T01:56:19;38.67;;;19.97;;
16824;SDS011;8529;48.108;-1.706;2024-01-11T01:58:47;40.17;;;19.43;;
16824;SDS011;8529;48.108;-1.706;2024-01-11T02:01:14;37.90;;;20.03;;
16824;SDS011;8529;48.108;-1.706;2024-01-11T02:03:42;37.73;;;19.37;;
16824;SDS011;8529;48.108;-1.706;2024-01-11T02:06:10;39.57;;;19.17;;
16824;SDS011;8529;48.108;-1.706;2024-01-11T02:08:38;38.63;;;18.70;;
16824;SDS011;8529;48.108;-1.706;2024-01-11T02:11:07;40.23;;;20.20;;
16824;SDS011;8529;48.108;-1.706;2024-01-11T02:13:33;40.07;;;20.00;;
16824;SDS011;8529;48.108;-1.706;2024-01-11T02:16:01;36.93;;;18.40;;
16824;SDS011;8529;48.108;-1.706;2024-01-11T02:18:28;39.60;;;19.30;;
16824;SDS011;8529;48.108;-1.706;2024-01-11T02:20:55;44.60;;;20.00;;
16824;SDS011;8529;48.108;-1.706;2024-01-11T02:23:24;35.87;;;19.33;;
16824;SDS011;8529;48.108;-1.706;2024-01-11T02:25:52;40.67;;;19.63;;
16824;SDS011;8529;48.108;-1.706;2024-01-11T02:28:19;42.03;;;19.70;;
16824;SDS011;8529;48.108;-1.706;2024-01-11T02:30:47;38.40;;;19.50;;
16824;SDS011;8529;48.108;-1.706;2024-01-11T02:33:14;42.97;;;18.97;;
16824;SDS011;8529;48.108;-1.706;2024-01-11T02:35:43;37.60;;;19.17;;
16824;SDS011;8529;48.108;-1.706;2024-01-11T02:38:10;35.47;;;18.03;;
16824;SDS011;8529;48.108;-1.706;2024-01-11T02:40:38;39.30;;;18.67;;
16824;SDS011;8529;48.108;-1.706;2024-01-11T02:43:10;37.73;;;18.57;;
16824;SDS011;8529;48.108;-1.706;2024-01-11T02:45:37;36.33;;;17.70;;
16824;SDS011;8529;48.108;-1.706;2024-01-11T02:48:05;37.10;;;18.73;;
16824;SDS011;8529;48.108;-1.706;2024-01-11T02:50:32;38.73;;;17.20;;
16824;SDS011;8529;48.108;-1.706;2024-01-11T02:52:59;36.27;;;18.40;;
16824;SDS011;8529;48.108;-1.706;2024-01-11T02:55:26;38.67;;;17.77;;
16824;SDS011;8529;48.108;-1.706;2024-01-11T02:57:53;35.43;;;17.40;;
16824;SDS011;8529;48.108;-1.706;2024-01-11T03:00:22;32.20;;;15.77;;
16824;SDS011;8529;48.108;-1.706;2024-01-11T03:02:49;33.97;;;16.93;;
16824;SDS011;8529;48.108;-1.706;2024-01-11T03:05:16;35.13;;;17.87;;
16824;SDS011;8529;48.108;-1.706;2024-01-11T03:07:43;34.13;;;16.43;;
16824;SDS011;8529;48.108;-1.706;2024-01-11T03:10:10;32.13;;;18.83;;
16824;SDS011;8529;48.108;-1.706;2024-01-11T03:12:39;32.67;;;16.87;;
16824;SDS011;8529;48.108;-1.706;2024-01-11T03:15:06;34.40;;;17.33;;
16824;SDS011;8529;48.108;-1.706;2024-01-11T03:17:35;36.10;;;16.47;;
16824;SDS011;8529;48.108;-1.706;2024-01-11T03:20:02;32.70;;;16.37;;
16824;SDS011;8529;48.108;-1.706;2024-01-11T03:22:30;38.60;;;17.80;;
16824;SDS011;8529;48.108;-1.706;2024-01-11T03:24:57;37.10;;;17.20;;
16824;SDS011;8529;48.108;-1.706;2024-01-11T03:27:25;34.33;;;16.63;;
16824;SDS011;8529;48.108;-1.706;2024-01-11T03:29:52;33.60;;;16.33;;
16824;SDS011;8529;48.108;-1.706;2024-01-11T03:32:19;32.80;;;16.37;;
16824;SDS011;8529;48.108;-1.706;2024-01-11T03:34:47;34.97;;;16.37;;
16824;SDS011;8529;48.108;-1.706;2024-01-11T03:37:15;34.77;;;17.13;;
16824;SDS011;8529;48.108;-1.706;2024-01-11T03:39:42;33.70;;;17.03;;
16824;SDS011;8529;48.108;-1.706;2024-01-11T03:42:09;37.83;;;16.37;;
16824;SDS011;8529;48.108;-1.706;2024-01-11T03:44:37;35.30;;;17.00;;
16824;SDS011;8529;48.108;-1.706;2024-01-11T03:47:04;36.70;;;17.60;;
16824;SDS011;8529;48.108;-1.706;2024-01-11T03:49:31;32.37;;;16.50;;
16824;SDS011;8529;48.108;-1.706;2024-01-11T03:52:00;33.97;;;16.20;;
16824;SDS011;8529;48.108;-1.706;2024-01-11T03:54:26;32.87;;;16.27;;
16824;SDS011;8529;48.108;-1.706;2024-01-11T03:56:53;31.10;;;16.23;;
16824;SDS011;8529;48.108;-1.706;2024-01-11T03:59:20;32.87;;;15.77;;
16824;SDS011;8529;48.108;-1.706;2024-01-11T04:01:47;32.03;;;16.47;;
16824;SDS011;8529;48.108;-1.706;2024-01-11T04:04:14;31.33;;;15.87;;
16824;SDS011;8529;48.108;-1.706;2024-01-11T04:06:41;34.33;;;16.70;;
16824;SDS011;8529;48.108;-1.706;2024-01-11T04:09:11;33.77;;;16.97;;
16824;SDS011;8529;48.108;-1.706;2024-01-11T04:11:38;32.03;;;15.23;;
16824;SDS011;8529;48.108;-1.706;2024-01-11T04:14:05;28.73;;;15.77;;
16824;SDS011;8529;48.108;-1.706;2024-01-11T04:16:32;31.13;;;15.63;;
16824;SDS011;8529;48.108;-1.706;2024-01-11T04:19:00;28.40;;;14.63;;
16824;SDS011;8529;48.108;-1.706;2024-01-11T04:21:29;33.97;;;15.73;;
16824;SDS011;8529;48.108;-1.706;2024-01-11T04:23:56;32.17;;;15.67;;
16824;SDS011;8529;48.108;-1.706;2024-01-11T04:26:24;33.63;;;16.37;;
16824;SDS011;8529;48.108;-1.706;2024-01-11T04:28:52;30.17;;;14.87;;
16824;SDS011;8529;48.108;-1.706;2024-01-11T04:31:19;33.57;;;15.47;;
16824;SDS011;8529;48.108;-1.706;2024-01-11T04:33:46;32.30;;;15.37;;
16824;SDS011;8529;48.108;-1.706;2024-01-11T04:36:14;32.63;;;16.10;;
16824;SDS011;8529;48.108;-1.706;2024-01-11T04:38:41;32.20;;;15.50;;
16824;SDS011;8529;48.108;-1.706;2024-01-11T04:41:09;32.97;;;15.97;;
16824;SDS011;8529;48.108;-1.706;2024-01-11T04:43:38;28.90;;;14.83;;
16824;SDS011;8529;48.108;-1.706;2024-01-11T04:46:12;31.30;;;16.13;;
16824;SDS011;8529;48.108;-1.706;2024-01-11T04:48:39;25.13;;;13.57;;
16824;SDS011;8529;48.108;-1.706;2024-01-11T04:51:06;30.60;;;15.23;;
16824;SDS011;8529;48.108;-1.706;2024-01-11T04:53:35;31.30;;;15.57;;
16824;SDS011;8529;48.108;-1.706;2024-01-11T04:56:03;29.47;;;14.67;;
16824;SDS011;8529;48.108;-1.706;2024-01-11T04:58:30;33.97;;;17.23;;
16824;SDS011;8529;48.108;-1.706;2024-01-11T05:00:59;32.37;;;15.37;;
16824;SDS011;8529;48.108;-1.706;2024-01-11T05:03:27;29.53;;;16.43;;
16824;SDS011;8529;48.108;-1.706;2024-01-11T05:05:54;28.70;;;15.03;;
16824;SDS011;8529;48.108;-1.706;2024-01-11T05:08:21;30.60;;;16.07;;
16824;SDS011;8529;48.108;-1.706;2024-01-11T05:10:49;29.13;;;15.93;;
16824;SDS011;8529;48.108;-1.706;2024-01-11T05:13:16;33.30;;;16.53;;
16824;SDS011;8529;48.108;-1.706;2024-01-11T05:15:44;27.53;;;15.07;;
16824;SDS011;8529;48.108;-1.706;2024-01-11T05:18:13;29.93;;;15.47;;
16824;SDS011;8529;48.108;-1.706;2024-01-11T05:20:40;28.97;;;14.90;;
16824;SDS011;8529;48.108;-1.706;2024-01-11T05:23:07;31.20;;;15.33;;
16824;SDS011;8529;48.108;-1.706;2024-01-11T05:25:35;31.63;;;16.40;;
16824;SDS011;8529;48.108;-1.706;2024-01-11T05:28:02;29.40;;;15.00;;
16824;SDS011;8529;48.108;-1.706;2024-01-11T05:30:30;30.50;;;15.47;;
16824;SDS011;8529;48.108;-1.706;2024-01-11T05:32:57;27.47;;;15.17;;
16824;SDS011;8529;48.108;-1.706;2024-01-11T05:35:25;34.03;;;15.90;;
16824;SDS011;8529;48.108;-1.706;2024-01-11T05:37:53;28.53;;;14.87;;
16824;SDS011;8529;48.108;-1.706;2024-01-11T05:40:21;33.33;;;16.37;;
16824;SDS011;8529;48.108;-1.706;2024-01-11T05:42:48;29.30;;;15.57;;
16824;SDS011;8529;48.108;-1.706;2024-01-11T05:45:15;36.33;;;15.53;;
16824;SDS011;8529;48.108;-1.706;2024-01-11T05:47:43;28.97;;;15.40;;
16824;SDS011;8529;48.108;-1.706;2024-01-11T05:50:10;30.13;;;15.57;;
16824;SDS011;8529;48.108;-1.706;2024-01-11T05:52:39;31.80;;;16.27;;
16824;SDS011;8529;48.108;-1.706;2024-01-11T05:55:06;29.57;;;15.17;;
16824;SDS011;8529;48.108;-1.706;2024-01-11T05:57:34;32.03;;;16.83;;
16824;SDS011;8529;48.108;-1.706;2024-01-11T06:00:01;33.07;;;16.60;;
16824;SDS011;8529;48.108;-1.706;2024-01-11T06:02:28;30.53;;;16.37;;
16824;SDS011;8529;48.108;-1.706;2024-01-11T06:04:56;33.53;;;16.00;;
16824;SDS011;8529;48.108;-1.706;2024-01-11T06:07:23;29.43;;;14.80;;
16824;SDS011;8529;48.108;-1.706;2024-01-11T06:09:52;26.80;;;15.53;;
16824;SDS011;8529;48.108;-1.706;2024-01-11T06:12:19;32.37;;;16.17;;
16824;SDS011;8529;48.108;-1.706;2024-01-11T06:14:46;26.80;;;14.53;;
16824;SDS011;8529;48.108;-1.706;2024-01-11T06:17:13;24.07;;;14.87;;
16824;SDS011;8529;48.108;-1.706;2024-01-11T06:19:40;31.23;;;15.63;;
16824;SDS011;8529;48.108;-1.706;2024-01-11T06:22:08;32.63;;;15.97;;
16824;SDS011;8529;48.108;-1.706;2024-01-11T06:24:34;32.57;;;16.77;;
16824;SDS011;8529;48.108;-1.706;2024-01-11T06:27:03;27.87;;;15.27;;
16824;SDS011;8529;48.108;-1.706;2024-01-11T06:29:30;29.17;;;14.80;;
16824;SDS011;8529;48.108;-1.706;2024-01-11T06:31:57;30.90;;;14.90;;
16824;SDS011;8529;48.108;-1.706;2024-01-11T06:34:25;30.43;;;15.13;;
16824;SDS011;8529;48.108;-1.706;2024-01-11T06:36:52;31.70;;;16.00;;
16824;SDS011;8529;48.108;-1.706;2024-01-11T06:39:19;32.87;;;15.70;;
16824;SDS011;8529;48.108;-1.706;2024-01-11T06:41:46;31.03;;;15.30;;
16824;SDS011;8529;48.108;-1.706;2024-01-11T06:44:14;31.97;;;16.03;;
16824;SDS011;8529;48.108;-1.706;2024-01-11T06:46:42;27.67;;;15.10;;
16824;SDS011;8529;48.108;-1.706;2024-01-11T06:49:10;29.10;;;15.37;;
16824;SDS011;8529;48.108;-1.706;2024-01-11T06:51:37;33.43;;;17.30;;
16824;SDS011;8529;48.108;-1.706;2024-01-11T06:54:05;34.67;;;16.60;;
16824;SDS011;8529;48.108;-1.706;2024-01-11T06:56:32;27.47;;;14.57;;
16824;SDS011;8529;48.108;-1.706;2024-01-11T06:59:00;29.43;;;15.53;;
16824;SDS011;8529;48.108;-1.706;2024-01-11T07:01:29;26.00;;;14.83;;
16824;SDS011;8529;48.108;-1.706;2024-01-11T07:03:56;29.80;;;16.40;;
16824;SDS011;8529;48.108;-1.706;2024-01-11T07:06:23;35.83;;;16.47;;
16824;SDS011;8529;48.108;-1.706;2024-01-11T07:08:50;32.40;;;15.70;;
16824;SDS011;8529;48.108;-1.706;2024-01-11T07:11:18;29.70;;;15.70;;
16824;SDS011;8529;48.108;-1.706;2024-01-11T07:13:45;28.60;;;15.00;;
16824;SDS011;8529;48.108;-1.706;2024-01-11T07:16:12;32.27;;;15.97;;
16824;SDS011;8529;48.108;-1.706;2024-01-11T07:18:40;35.20;;;15.87;;
16824;SDS011;8529;48.108;-1.706;2024-01-11T07:21:07;29.60;;;15.57;;
16824;SDS011;8529;48.108;-1.706;2024-01-11T07:23:35;32.50;;;17.23;;
16824;SDS011;8529;48.108;-1.706;2024-01-11T07:26:02;30.00;;;16.13;;
16824;SDS011;8529;48.108;-1.706;2024-01-11T07:28:29;31.93;;;15.57;;
16824;SDS011;8529;48.108;-1.706;2024-01-11T07:30:56;34.43;;;15.97;;
16824;SDS011;8529;48.108;-1.706;2024-01-11T07:33:23;32.67;;;15.20;;
16824;SDS011;8529;48.108;-1.706;2024-01-11T07:35:51;30.93;;;16.17;;
16824;SDS011;8529;48.108;-1.706;2024-01-11T07:38:19;32.10;;;15.67;;
16824;SDS011;8529;48.108;-1.706;2024-01-11T07:40:46;33.63;;;15.13;;
16824;SDS011;8529;48.108;-1.706;2024-01-11T07:43:13;32.43;;;15.93;;
16824;SDS011;8529;48.108;-1.706;2024-01-11T07:45:40;35.07;;;17.07;;
16824;SDS011;8529;48.108;-1.706;2024-01-11T07:48:07;33.37;;;15.50;;
16824;SDS011;8529;48.108;-1.706;2024-01-11T07:50:34;33.67;;;15.67;;
16824;SDS011;8529;48.108;-1.706;2024-01-11T07:53:03;33.40;;;16.77;;
16824;SDS011;8529;48.108;-1.706;2024-01-11T07:55:30;28.97;;;15.20;;
16824;SDS011;8529;48.108;-1.706;2024-01-11T07:57:57;35.53;;;16.13;;
16824;SDS011;8529;48.108;-1.706;2024-01-11T08:00:24;30.47;;;15.57;;
16824;SDS011;8529;48.108;-1.706;2024-01-11T08:02:52;32.10;;;15.07;;
16824;SDS011;8529;48.108;-1.706;2024-01-11T08:05:19;31.30;;;16.63;;
16824;SDS011;8529;48.108;-1.706;2024-01-11T08:07:46;35.13;;;16.10;;
16824;SDS011;8529;48.108;-1.706;2024-01-11T08:10:15;33.57;;;17.10;;
16824;SDS011;8529;48.108;-1.706;2024-01-11T08:12:42;35.67;;;16.27;;
16824;SDS011;8529;48.108;-1.706;2024-01-11T08:15:09;32.83;;;16.87;;
16824;SDS011;8529;48.108;-1.706;2024-01-11T08:17:37;30.07;;;15.70;;
16824;SDS011;8529;48.108;-1.706;2024-01-11T08:20:04;34.77;;;17.33;;
16824;SDS011;8529;48.108;-1.706;2024-01-11T08:22:33;32.67;;;16.37;;
16824;SDS011;8529;48.108;-1.706;2024-01-11T08:25:01;36.47;;;16.80;;
16824;SDS011;8529;48.108;-1.706;2024-01-11T08:27:31;34.57;;;15.83;;
16824;SDS011;8529;48.108;-1.706;2024-01-11T08:29:58;36.70;;;15.57;;
16824;SDS011;8529;48.108;-1.706;2024-01-11T08:32:26;32.47;;;16.13;;
16824;SDS011;8529;48.108;-1.706;2024-01-11T08:34:53;32.90;;;16.03;;
16824;SDS011;8529;48.108;-1.706;2024-01-11T08:37:21;30.73;;;15.47;;
16824;SDS011;8529;48.108;-1.706;2024-01-11T08:39:48;34.33;;;16.50;;
16824;SDS011;8529;48.108;-1.706;2024-01-11T08:42:15;36.07;;;15.87;;
16824;SDS011;8529;48.108;-1.706;2024-01-11T08:44:44;32.03;;;16.50;;
16824;SDS011;8529;48.108;-1.706;2024-01-11T08:47:11;32.17;;;17.20;;
16824;SDS011;8529;48.108;-1.706;2024-01-11T08:49:38;30.97;;;16.63;;
16824;SDS011;8529;48.108;-1.706;2024-01-11T08:52:05;31.33;;;16.53;;
16824;SDS011;8529;48.108;-1.706;2024-01-11T08:54:33;33.37;;;16.53;;
16824;SDS011;8529;48.108;-1.706;2024-01-11T08:57:00;34.93;;;17.40;;
16824;SDS011;8529;48.108;-1.706;2024-01-11T08:59:28;30.30;;;15.73;;
16824;SDS011;8529;48.108;-1.706;2024-01-11T09:01:56;33.87;;;16.63;;
16824;SDS011;8529;48.108;-1.706;2024-01-11T09:04:23;35.97;;;16.87;;
16824;SDS011;8529;48.108;-1.706;2024-01-11T09:06:50;35.00;;;17.47;;
16824;SDS011;8529;48.108;-1.706;2024-01-11T09:09:17;34.67;;;16.57;;
16824;SDS011;8529;48.108;-1.706;2024-01-11T09:11:44;33.40;;;15.73;;
16824;SDS011;8529;48.108;-1.706;2024-01-11T09:14:11;30.33;;;16.43;;
16824;SDS011;8529;48.108;-1.706;2024-01-11T09:16:38;30.30;;;16.13;;
16824;SDS011;8529;48.108;-1.706;2024-01-11T09:19:07;37.20;;;17.67;;
16824;SDS011;8529;48.108;-1.706;2024-01-11T09:21:35;30.33;;;16.63;;
16824;SDS011;8529;48.108;-1.706;2024-01-11T09:24:03;31.93;;;17.97;;
16824;SDS011;8529;48.108;-1.706;2024-01-11T09:26:30;31.47;;;16.57;;
16824;SDS011;8529;48.108;-1.706;2024-01-11T09:28:57;35.80;;;18.30;;
16824;SDS011;8529;48.108;-1.706;2024-01-11T09:31:24;34.37;;;17.00;;
16824;SDS011;8529;48.108;-1.706;2024-01-11T09:33:52;30.67;;;16.93;;
16824;SDS011;8529;48.108;-1.706;2024-01-11T09:36:23;33.97;;;16.87;;
16824;SDS011;8529;48.108;-1.706;2024-01-11T09:38:50;36.87;;;17.17;;
16824;SDS011;8529;48.108;-1.706;2024-01-11T09:41:17;35.33;;;17.93;;
16824;SDS011;8529;48.108;-1.706;2024-01-11T09:43:45;36.93;;;18.47;;
16824;SDS011;8529;48.108;-1.706;2024-01-11T09:46:12;50.27;;;23.23;;
16824;SDS011;8529;48.108;-1.706;2024-01-11T09:48:40;68.37;;;25.97;;
16824;SDS011;8529;48.108;-1.706;2024-01-11T09:51:10;67.23;;;24.50;;
16824;SDS011;8529;48.108;-1.706;2024-01-11T09:53:38;40.50;;;19.47;;
16824;SDS011;8529;48.108;-1.706;2024-01-11T09:56:07;39.97;;;18.63;;
16824;SDS011;8529;48.108;-1.706;2024-01-11T09:58:34;97.00;;;28.73;;
16824;SDS011;8529;48.108;-1.706;2024-01-11T10:01:02;34.57;;;17.50;;
16824;SDS011;8529;48.108;-1.706;2024-01-11T10:03:31;39.47;;;18.57;;
16824;SDS011;8529;48.108;-1.706;2024-01-11T10:05:58;45.17;;;20.13;;
16824;SDS011;8529;48.108;-1.706;2024-01-11T10:08:27;47.60;;;20.87;;
16824;SDS011;8529;48.108;-1.706;2024-01-11T10:10:56;42.50;;;18.77;;
16824;SDS011;8529;48.108;-1.706;2024-01-11T10:13:25;59.77;;;24.23;;
16824;SDS011;8529;48.108;-1.706;2024-01-11T10:15:53;95.03;;;32.50;;
16824;SDS011;8529;48.108;-1.706;2024-01-11T10:18:31;38.83;;;18.27;;
16824;SDS011;8529;48.108;-1.706;2024-01-11T10:20:58;48.40;;;21.23;;
16824;SDS011;8529;48.108;-1.706;2024-01-11T10:23:25;40.30;;;19.23;;
16824;SDS011;8529;48.108;-1.706;2024-01-11T10:25:55;35.37;;;17.57;;
16824;SDS011;8529;48.108;-1.706;2024-01-11T10:28:22;37.67;;;18.90;;
16824;SDS011;8529;48.108;-1.706;2024-01-11T10:30:50;37.93;;;17.93;;
16824;SDS011;8529;48.108;-1.706;2024-01-11T10:33:19;33.90;;;16.83;;
16824;SDS011;8529;48.108;-1.706;2024-01-11T10:35:47;63.83;;;23.60;;
16824;SDS011;8529;48.108;-1.706;2024-01-11T10:38:15;68.23;;;26.50;;
16824;SDS011;8529;48.108;-1.706;2024-01-11T10:40:42;46.93;;;21.30;;
16824;SDS011;8529;48.108;-1.706;2024-01-11T10:43:11;45.50;;;19.13;;
16824;SDS011;8529;48.108;-1.706;2024-01-11T10:45:40;56.13;;;22.70;;
16824;SDS011;8529;48.108;-1.706;2024-01-11T10:48:12;76.93;;;29.00;;
16824;SDS011;8529;48.108;-1.706;2024-01-11T10:50:41;50.33;;;22.20;;
16824;SDS011;8529;48.108;-1.706;2024-01-11T10:53:12;44.17;;;20.73;;
16824;SDS011;8529;48.108;-1.706;2024-01-11T10:55:39;47.10;;;20.47;;
16824;SDS011;8529;48.108;-1.706;2024-01-11T10:58:08;36.27;;;17.20;;
16824;SDS011;8529;48.108;-1.706;2024-01-11T11:00:38;53.97;;;24.87;;
16824;SDS011;8529;48.108;-1.706;2024-01-11T11:03:05;63.33;;;24.70;;
16824;SDS011;8529;48.108;-1.706;2024-01-11T11:05:33;52.70;;;22.10;;
16824;SDS011;8529;48.108;-1.706;2024-01-11T11:08:01;91.97;;;33.47;;
16824;SDS011;8529;48.108;-1.706;2024-01-11T11:10:28;66.90;;;26.67;;
16824;SDS011;8529;48.108;-1.706;2024-01-11T11:12:57;61.33;;;22.73;;
16824;SDS011;8529;48.108;-1.706;2024-01-11T11:15:25;35.97;;;18.57;;
16824;SDS011;8529;48.108;-1.706;2024-01-11T11:17:55;33.33;;;17.20;;
16824;SDS011;8529;48.108;-1.706;2024-01-11T11:20:22;53.70;;;22.63;;
16824;SDS011;8529;48.108;-1.706;2024-01-11T11:23:02;42.80;;;20.40;;
16824;SDS011;8529;48.108;-1.706;2024-01-11T11:25:30;31.67;;;16.13;;
16824;SDS011;8529;48.108;-1.706;2024-01-11T11:27:57;32.03;;;16.87;;
16824;SDS011;8529;48.108;-1.706;2024-01-11T11:30:26;33.07;;;17.03;;
16824;SDS011;8529;48.108;-1.706;2024-01-11T11:32:54;30.80;;;17.10;;
16824;SDS011;8529;48.108;-1.706;2024-01-11T11:35:22;35.37;;;18.00;;
16824;SDS011;8529;48.108;-1.706;2024-01-11T11:37:53;32.67;;;17.00;;
16824;SDS011;8529;48.108;-1.706;2024-01-11T11:40:20;39.53;;;18.97;;
16824;SDS011;8529;48.108;-1.706;2024-01-11T11:42:48;34.23;;;17.53;;
16824;SDS011;8529;48.108;-1.706;2024-01-11T11:45:23;33.17;;;17.70;;
16824;SDS011;8529;48.108;-1.706;2024-01-11T11:47:51;44.77;;;20.07;;
16824;SDS011;8529;48.108;-1.706;2024-01-11T11:50:22;36.30;;;17.60;;
16824;SDS011;8529;48.108;-1.706;2024-01-11T11:52:53;36.67;;;18.10;;
16824;SDS011;8529;48.108;-1.706;2024-01-11T11:55:21;41.53;;;20.97;;
16824;SDS011;8529;48.108;-1.706;2024-01-11T11:57:49;36.47;;;19.07;;
16824;SDS011;8529;48.108;-1.706;2024-01-11T12:00:16;52.53;;;22.10;;
16824;SDS011;8529;48.108;-1.706;2024-01-11T12:02:44;34.43;;;17.43;;
16824;SDS011;8529;48.108;-1.706;2024-01-11T12:05:11;34.77;;;18.67;;
16824;SDS011;8529;48.108;-1.706;2024-01-11T12:07:39;37.67;;;18.33;;
16824;SDS011;8529;48.108;-1.706;2024-01-11T12:10:07;45.17;;;21.63;;
16824;SDS011;8529;48.108;-1.706;2024-01-11T12:12:34;35.60;;;17.77;;
16824;SDS011;8529;48.108;-1.706;2024-01-11T12:15:02;32.00;;;17.27;;
16824;SDS011;8529;48.108;-1.706;2024-01-11T12:17:30;37.20;;;19.67;;
16824;SDS011;8529;48.108;-1.706;2024-01-11T12:19:57;36.93;;;18.60;;
16824;SDS011;8529;48.108;-1.706;2024-01-11T12:22:24;32.70;;;16.93;;
16824;SDS011;8529;48.108;-1.706;2024-01-11T12:24:53;35.60;;;18.40;;
16824;SDS011;8529;48.108;-1.706;2024-01-11T12:27:20;38.07;;;18.13;;
16824;SDS011;8529;48.108;-1.706;2024-01-11T12:29:47;30.07;;;17.00;;
16824;SDS011;8529;48.108;-1.706;2024-01-11T12:32:14;30.90;;;16.73;;
16824;SDS011;8529;48.108;-1.706;2024-01-11T12:34:42;31.97;;;15.40;;
16824;SDS011;8529;48.108;-1.706;2024-01-11T12:37:10;34.43;;;17.40;;
16824;SDS011;8529;48.108;-1.706;2024-01-11T12:39:37;31.80;;;16.70;;
16824;SDS011;8529;48.108;-1.706;2024-01-11T12:42:06;34.17;;;17.13;;
16824;SDS011;8529;48.108;-1.706;2024-01-11T12:44:34;32.67;;;16.40;;
16824;SDS011;8529;48.108;-1.706;2024-01-11T12:47:03;31.63;;;16.60;;
16824;SDS011;8529;48.108;-1.706;2024-01-11T12:49:31;32.53;;;16.20;;
16824;SDS011;8529;48.108;-1.706;2024-01-11T12:51:58;36.50;;;15.90;;
16824;SDS011;8529;48.108;-1.706;2024-01-11T12:54:26;29.43;;;16.13;;
16824;SDS011;8529;48.108;-1.706;2024-01-11T12:56:53;28.93;;;15.17;;
16824;SDS011;8529;48.108;-1.706;2024-01-11T12:59:21;25.47;;;15.40;;
16824;SDS011;8529;48.108;-1.706;2024-01-11T13:01:51;27.47;;;16.23;;
16824;SDS011;8529;48.108;-1.706;2024-01-11T13:04:19;30.17;;;16.17;;
16824;SDS011;8529;48.108;-1.706;2024-01-11T13:06:46;28.83;;;16.03;;
16824;SDS011;8529;48.108;-1.706;2024-01-11T13:09:13;29.53;;;16.53;;
16824;SDS011;8529;48.108;-1.706;2024-01-11T13:11:40;28.07;;;16.33;;
16824;SDS011;8529;48.108;-1.706;2024-01-11T13:14:08;29.13;;;16.30;;
16824;SDS011;8529;48.108;-1.706;2024-01-11T13:16:43;35.60;;;17.33;;
16824;SDS011;8529;48.108;-1.706;2024-01-11T13:19:10;30.73;;;16.40;;
16824;SDS011;8529;48.108;-1.706;2024-01-11T13:21:37;28.83;;;16.27;;
16824;SDS011;8529;48.108;-1.706;2024-01-11T13:24:04;31.90;;;17.13;;
16824;SDS011;8529;48.108;-1.706;2024-01-11T13:26:32;28.97;;;15.97;;
16824;SDS011;8529;48.108;-1.706;2024-01-11T13:28:59;31.33;;;17.23;;
16824;SDS011;8529;48.108;-1.706;2024-01-11T13:31:27;28.33;;;15.87;;
16824;SDS011;8529;48.108;-1.706;2024-01-11T13:33:55;35.53;;;16.67;;
16824;SDS011;8529;48.108;-1.706;2024-01-11T13:36:22;28.97;;;16.33;;
16824;SDS011;8529;48.108;-1.706;2024-01-11T13:38:50;33.03;;;16.97;;
16824;SDS011;8529;48.108;-1.706;2024-01-11T13:41:18;30.03;;;16.43;;
16824;SDS011;8529;48.108;-1.706;2024-01-11T13:43:45;30.77;;;16.67;;
16824;SDS011;8529;48.108;-1.706;2024-01-11T13:46:13;30.77;;;16.07;;
16824;SDS011;8529;48.108;-1.706;2024-01-11T13:48:44;31.97;;;17.00;;
16824;SDS011;8529;48.108;-1.706;2024-01-11T13:51:13;26.67;;;15.57;;
16824;SDS011;8529;48.108;-1.706;2024-01-11T13:53:40;27.47;;;15.70;;
16824;SDS011;8529;48.108;-1.706;2024-01-11T13:56:07;27.33;;;15.73;;
16824;SDS011;8529;48.108;-1.706;2024-01-11T13:58:35;27.73;;;15.47;;
16824;SDS011;8529;48.108;-1.706;2024-01-11T14:01:03;27.73;;;15.13;;
16824;SDS011;8529;48.108;-1.706;2024-01-11T14:03:30;27.87;;;15.03;;
16824;SDS011;8529;48.108;-1.706;2024-01-11T14:05:57;26.57;;;15.03;;
16824;SDS011;8529;48.108;-1.706;2024-01-11T14:08:26;22.53;;;14.30;;
16824;SDS011;8529;48.108;-1.706;2024-01-11T14:10:53;25.73;;;14.27;;
16824;SDS011;8529;48.108;-1.706;2024-01-11T14:13:21;25.47;;;14.80;;
16824;SDS011;8529;48.108;-1.706;2024-01-11T14:15:48;22.60;;;13.27;;
16824;SDS011;8529;48.108;-1.706;2024-01-11T14:18:16;26.40;;;14.77;;
16824;SDS011;8529;48.108;-1.706;2024-01-11T14:20:43;23.23;;;13.70;;
16824;SDS011;8529;48.108;-1.706;2024-01-11T14:23:12;23.13;;;13.57;;